Raleigh, NC

7:12 PM EDT on September 02, 2015 (GMT -0400)
North Ridge - Haymarket | | Change Station
CLOSE
Current Station
Personal Weather Station
Location: Raleigh, NC
Elevation: 410 ft
Nearby Weather Stations

Elev 410 ft 35.89 °N, 78.61 °W | Updated 1 second ago

Mostly Cloudy
Mostly Cloudy
84.3 °F
Feels Like 93 °F
N
0.0
Wind Variable Wind from NE
Gusts 0.0 mph

Today
High -- | Low -- °F
--% Chance of Precip.
Yesterday
High -- | Low -- °F
Precip. -- in
6:46 AM 7:40 PM
Waning Gibbous, 76% visible
Pressure 29.94 in
Visibility 10.0 miles
Clouds Few 6000 ft
Scattered Clouds 14000 ft
Scattered Clouds 25000 ft
Heat Index 93 °F
Dew Point 75 °F
Humidity 74%
Rainfall 0.00 in
Snow Depth Not available.
UV 0 out of 12
Pollen 8.50 out of 12
Air Quality Not available.
Flu Activity Not available.
METAR KRDU 022251Z 26003KT 10SM FEW060 SCT140 SCT250 29/20 A2995 RMK AO2 SLP137 CB DSNT N-NE T02940200 $
Pressure 29.94 in
Visibility 10.0 miles
Clouds Few 6000 ft
Scattered Clouds 14000 ft
Scattered Clouds 25000 ft
Heat Index 93 °F
Dew Point 75 °F
Humidity 74%
Rainfall 0.00 in
Snow Depth Not available.
UV 0 out of 12
Pollen 8.50 out of 12
Air Quality Not available.
Flu Activity Not available.
METAR KRDU 022251Z 26003KT 10SM FEW060 SCT140 SCT250 29/20 A2995 RMK AO2 SLP137 CB DSNT N-NE T02940200 $

10-Day Weather Forecast

×

Almanac

Astronomy

Sep. 02, 2015 Rise Set
Actual Time
Civil Twilight
Nautical Twilight
Astronomical Twilight
Moon
Length of Visible Light
Length of Day
Tomorrow will be .
, % of the Moon is Illuminated

Today's Extremes

State Highs State Lows

Community

WunderPhotos

Upload Photos

1,851,823 photos uploaded!

WunderBlogs® & News

Nearby

Air Quality

  Air Quality AQ Index Pollutant
Not available.

Snow Depth

Station Depth Elevation

Earthquake Activity

City Distance Mag. Time & Date
Minimum magnitude displayed is 2.5.

Coastal Water Temperatures

Place Temperature

Stations

Nearby Weather Stations

Station Location Temp. Windchill Dew Point Humidity Wind Precip. Elev Updated Type